Time;durP1;ratioP1;P1;durP2;ratioP2;P2;SDS_P1;SDS_P2;PMS_P1;PMS_P2;Temp;Humidity;BMP_temperature;BMP_pressure;BME280_temperature;BME280_humidity;BME280_pressure;Samples;Min_cycle;Max_cycle;Signal;HPM_P1;HPM_P2
2021/03/10 00:01:51;;;;;;;24.33;16.23;;;7.10;99.90;;;;;;5000142;28;20200;-84
2021/03/10 00:04:20;;;;;;;26.17;16.42;;;6.90;99.90;;;;;;4999911;28;20223;-86
2021/03/10 00:06:46;;;;;;;23.83;15.32;;;6.90;99.90;;;;;;4999807;28;20267;-85
2021/03/10 00:09:13;;;;;;;28.98;17.05;;;6.90;99.90;;;;;;5000362;28;20232;-84
2021/03/10 00:11:41;;;;;;;22.38;15.10;;;7.00;99.90;;;;;;4999443;28;20213;-85
2021/03/10 00:14:07;;;;;;;21.85;14.73;;;7.00;99.90;;;;;;4999330;28;20228;-85
2021/03/10 00:16:34;;;;;;;23.17;16.92;;;6.90;99.90;;;;;;5000225;28;20212;-85
2021/03/10 00:19:00;;;;;;;23.90;15.40;;;7.20;99.90;;;;;;5000762;28;20243;-87
2021/03/10 00:21:27;;;;;;;28.23;16.75;;;7.30;99.90;;;;;;5001064;28;20280;-84
2021/03/10 00:23:54;;;;;;;23.35;17.40;;;7.10;99.90;;;;;;5001272;28;20268;-85
2021/03/10 00:26:21;;;;;;;26.40;18.05;;;7.10;99.90;;;;;;5001696;28;20262;-87
2021/03/10 00:28:48;;;;;;;23.92;17.17;;;6.80;99.90;;;;;;5001677;28;20667;-86
2021/03/10 00:31:14;;;;;;;28.63;17.52;;;7.00;99.90;;;;;;5001482;28;20193;-86
2021/03/10 00:33:41;;;;;;;33.40;17.73;;;7.00;99.90;;;;;;5007940;28;20232;-87
2021/03/10 00:36:08;;;;;;;28.88;18.42;;;6.50;99.90;;;;;;5011351;28;20236;-87
2021/03/10 00:38:36;;;;;;;31.02;19.92;;;7.00;99.90;;;;;;5005353;28;20283;-84
2021/03/10 00:41:02;;;;;;;27.00;17.88;;;6.80;99.90;;;;;;5002463;28;20331;-85
2021/03/10 00:43:29;;;;;;;33.50;19.80;;;6.90;99.90;;;;;;5005527;28;20232;-86
2021/03/10 00:45:56;;;;;;;33.58;19.65;;;7.00;99.90;;;;;;5014786;28;20204;-86
2021/03/10 00:48:22;;;;;;;33.38;20.02;;;6.80;99.90;;;;;;5016682;28;20220;-85
2021/03/10 00:50:48;;;;;;;26.80;18.63;;;6.60;99.90;;;;;;5009827;28;20232;-86
2021/03/10 00:53:15;;;;;;;34.28;18.92;;;6.70;99.90;;;;;;5004210;28;20243;-86
2021/03/10 00:55:42;;;;;;;34.40;20.55;;;6.70;99.90;;;;;;5003576;28;20216;-86
2021/03/10 00:58:09;;;;;;;31.00;19.88;;;6.70;99.90;;;;;;5005103;28;20282;-86
2021/03/10 01:00:35;;;;;;;28.95;17.90;;;6.80;99.90;;;;;;5004082;28;20233;-84
2021/03/10 01:03:02;;;;;;;33.63;19.98;;;6.90;99.90;;;;;;5004824;28;20342;-85
2021/03/10 01:05:28;;;;;;;31.02;20.40;;;6.70;99.90;;;;;;5004227;28;20216;-87
2021/03/10 01:07:55;;;;;;;31.35;18.50;;;6.80;99.90;;;;;;5003109;28;20204;-85
2021/03/10 01:10:22;;;;;;;30.23;19.95;;;6.90;99.90;;;;;;5001855;28;20253;-85
2021/03/10 01:12:49;;;;;;;32.30;19.30;;;6.80;99.90;;;;;;5002916;28;20648;-87
2021/03/10 01:15:18;;;;;;;33.33;20.08;;;6.80;99.90;;;;;;5003114;28;20260;-87
2021/03/10 01:17:45;;;;;;;30.58;20.45;;;6.50;99.90;;;;;;5003498;28;20227;-86
2021/03/10 01:20:14;;;;;;;29.50;18.45;;;6.70;99.90;;;;;;5004615;28;20256;-87
2021/03/10 01:22:41;;;;;;;29.05;19.90;;;6.60;99.90;;;;;;5003098;28;20231;-85
2021/03/10 01:25:09;;;;;;;31.60;20.63;;;6.50;99.90;;;;;;5002068;28;20212;-84
2021/03/10 01:27:35;;;;;;;30.63;18.80;;;6.60;99.90;;;;;;5001920;28;20224;-83
2021/03/10 01:30:04;;;;;;;28.92;18.95;;;6.60;99.90;;;;;;5001961;28;20567;-85
2021/03/10 01:32:31;;;;;;;29.15;19.02;;;6.60;99.90;;;;;;5003348;28;20671;-85
2021/03/10 01:34:57;;;;;;;32.75;19.95;;;6.70;99.90;;;;;;5006596;28;20224;-87
2021/03/10 01:37:23;;;;;;;31.23;18.92;;;6.50;99.90;;;;;;5015462;28;20247;-86
2021/03/10 01:39:50;;;;;;;32.25;19.85;;;6.50;99.90;;;;;;5011402;28;20234;-84
2021/03/10 01:42:16;;;;;;;32.22;19.70;;;6.50;99.90;;;;;;5015161;28;20197;-87
2021/03/10 01:44:43;;;;;;;35.40;18.83;;;6.50;99.90;;;;;;5007338;28;20248;-86
2021/03/10 01:47:10;;;;;;;32.00;20.10;;;6.50;99.90;;;;;;5000990;28;20266;-85
2021/03/10 01:49:37;;;;;;;32.33;20.50;;;6.50;99.90;;;;;;4999813;28;20225;-85
2021/03/10 01:52:04;;;;;;;31.73;21.10;;;6.60;99.90;;;;;;5000696;28;20299;-87
2021/03/10 01:54:30;;;;;;;31.48;18.80;;;6.50;99.90;;;;;;4997732;28;20234;-86
2021/03/10 01:56:57;;;;;;;32.50;19.83;;;6.30;99.90;;;;;;5005057;28;20196;-87
2021/03/10 01:59:24;;;;;;;36.97;22.02;;;6.40;99.90;;;;;;5012280;28;20232;-88
2021/03/10 02:01:51;;;;;;;29.27;19.40;;;6.60;99.90;;;;;;4992188;28;20676;-86
2021/03/10 02:04:18;;;;;;;36.08;21.58;;;6.60;99.90;;;;;;4990680;28;20231;-86
2021/03/10 02:06:57;;;;;;;37.45;21.65;;;6.50;99.90;;;;;;4997182;28;20200;-87
2021/03/10 02:09:28;;;;;;;34.95;20.75;;;6.30;99.90;;;;;;4996748;28;20220;-86
2021/03/10 02:12:02;;;;;;;33.40;20.33;;;6.60;99.90;;;;;;4996944;28;20231;-87
2021/03/10 02:14:37;;;;;;;36.35;19.67;;;6.50;99.90;;;;;;4997506;28;20267;-87
2021/03/10 02:17:10;;;;;;;36.65;19.98;;;6.40;99.90;;;;;;4997041;28;20193;-86
2021/03/10 02:20:02;;;;;;;32.20;19.85;;;6.60;99.90;;;;;;4997688;28;20561;-86
2021/03/10 02:22:59;;;;;;;33.17;20.30;;;6.40;99.90;;;;;;5008602;28;20210;-86
2021/03/10 02:25:39;;;;;;;35.53;20.83;;;6.40;99.90;;;;;;5007473;28;20205;-86
2021/03/10 02:28:07;;;;;;;35.72;20.38;;;6.20;99.90;;;;;;5014186;28;20227;-86
2021/03/10 02:30:37;;;;;;;34.90;20.23;;;6.40;99.90;;;;;;5015711;28;20212;-86
2021/03/10 02:33:08;;;;;;;30.63;18.40;;;6.40;99.90;;;;;;5001838;28;20204;-87
2021/03/10 02:35:38;;;;;;;29.88;20.40;;;6.30;99.90;;;;;;5002277;28;20213;-87
2021/03/10 02:38:08;;;;;;;38.80;21.65;;;6.40;99.90;;;;;;5000668;28;20204;-87
2021/03/10 02:40:38;;;;;;;34.65;21.10;;;6.30;99.90;;;;;;4996784;28;20267;-87
2021/03/10 02:43:07;;;;;;;35.17;22.85;;;6.40;99.90;;;;;;5022700;23;20298;-85
2021/03/10 02:45:33;;;;;;;33.42;20.25;;;6.30;99.90;;;;;;5006487;28;20200;-86
2021/03/10 02:48:02;;;;;;;37.25;22.30;;;6.40;99.90;;;;;;4997589;28;20216;-84
2021/03/10 02:50:29;;;;;;;35.22;20.45;;;6.20;99.90;;;;;;4997586;28;20197;-85
2021/03/10 02:52:57;;;;;;;33.40;19.58;;;6.30;99.90;;;;;;5010816;28;20310;-86
2021/03/10 02:55:24;;;;;;;33.45;20.77;;;6.40;99.90;;;;;;5016970;28;20228;-85
2021/03/10 02:57:50;;;;;;;36.67;20.58;;;6.30;99.90;;;;;;5017081;28;20208;-85
2021/03/10 03:00:21;;;;;;;34.00;21.60;;;6.40;99.90;;;;;;5016128;28;20206;-85
2021/03/10 03:02:47;;;;;;;33.30;19.42;;;6.20;99.90;;;;;;5017156;28;20281;-85
2021/03/10 03:05:15;;;;;;;34.42;21.15;;;6.40;99.90;;;;;;5016850;28;20277;-85
2021/03/10 03:07:43;;;;;;;32.25;20.95;;;6.20;99.90;;;;;;5016822;28;20239;-85
2021/03/10 03:10:14;;;;;;;41.47;22.48;;;6.30;99.90;;;;;;5020251;28;20207;-85
2021/03/10 03:12:41;;;;;;;35.72;20.75;;;6.30;99.90;;;;;;5021655;28;20251;-85
2021/03/10 03:15:09;;;;;;;33.78;21.35;;;6.30;99.90;;;;;;5019814;28;20224;-85
2021/03/10 03:17:37;;;;;;;34.53;21.73;;;6.20;99.90;;;;;;5018246;28;20207;-85
2021/03/10 03:20:05;;;;;;;31.75;20.83;;;6.20;99.90;;;;;;5014665;28;20207;-85
2021/03/10 03:22:33;;;;;;;38.50;22.25;;;6.00;99.90;;;;;;5023895;28;20311;-85
2021/03/10 03:24:59;;;;;;;35.40;22.25;;;6.10;99.90;;;;;;5021469;28;20200;-85
2021/03/10 03:27:27;;;;;;;38.28;22.10;;;6.20;99.90;;;;;;5014162;28;20279;-85
2021/03/10 03:29:55;;;;;;;38.35;22.60;;;6.20;99.90;;;;;;5012951;28;20232;-85
2021/03/10 03:32:23;;;;;;;33.53;21.23;;;6.30;99.90;;;;;;5015866;28;20228;-85
2021/03/10 03:34:51;;;;;;;35.63;22.50;;;6.20;99.90;;;;;;5018127;28;20698;-85
2021/03/10 03:37:18;;;;;;;37.80;22.75;;;6.10;99.90;;;;;;5016366;28;20227;-85
2021/03/10 03:39:45;;;;;;;37.85;23.70;;;6.10;99.90;;;;;;5015789;28;20231;-85
2021/03/10 03:42:11;;;;;;;39.60;23.00;;;6.30;99.90;;;;;;5015066;28;20232;-85
2021/03/10 03:44:38;;;;;;;37.08;21.58;;;6.20;99.90;;;;;;5016997;28;20303;-85
2021/03/10 03:47:05;;;;;;;38.80;22.92;;;6.30;99.90;;;;;;5016181;28;20208;-85
2021/03/10 03:49:31;;;;;;;35.83;23.98;;;6.20;99.90;;;;;;5016252;28;20220;-85
2021/03/10 03:51:59;;;;;;;37.72;21.35;;;6.20;99.90;;;;;;5005322;28;20227;-85
2021/03/10 03:54:25;;;;;;;39.47;23.23;;;6.30;99.90;;;;;;5016090;28;20227;-85
2021/03/10 03:56:51;;;;;;;36.53;23.23;;;6.10;99.90;;;;;;5017320;28;20733;-85
2021/03/10 03:59:18;;;;;;;39.47;22.90;;;5.90;99.90;;;;;;5016545;28;20281;-85
2021/03/10 04:01:44;;;;;;;36.95;20.88;;;6.10;99.90;;;;;;5017351;28;20259;-85
2021/03/10 04:04:11;;;;;;;44.20;24.20;;;5.90;99.90;;;;;;5020214;28;20238;-86
2021/03/10 04:06:43;;;;;;;37.10;21.83;;;6.10;99.90;;;;;;5017773;28;20314;-86
2021/03/10 04:09:11;;;;;;;37.90;23.83;;;6.20;99.90;;;;;;5028424;28;20192;-84
2021/03/10 04:11:37;;;;;;;38.60;25.02;;;6.00;99.90;;;;;;5031099;28;20216;-85
2021/03/10 04:14:04;;;;;;;39.47;22.75;;;6.10;99.90;;;;;;5033802;28;20255;-85
2021/03/10 04:16:30;;;;;;;36.42;22.90;;;6.00;99.90;;;;;;5028980;28;20218;-84
2021/03/10 04:18:56;;;;;;;39.50;22.33;;;6.30;99.90;;;;;;5021767;28;20679;-85
2021/03/10 04:21:22;;;;;;;39.95;24.63;;;6.10;99.90;;;;;;5021527;28;20207;-84
2021/03/10 04:23:49;;;;;;;36.60;22.70;;;6.10;99.90;;;;;;5030777;28;20295;-85
2021/03/10 04:26:16;;;;;;;39.20;22.73;;;6.20;99.90;;;;;;5034024;28;20230;-87
2021/03/10 04:28:42;;;;;;;39.95;22.27;;;6.20;99.90;;;;;;5029132;28;20236;-85
2021/03/10 04:31:09;;;;;;;39.53;23.95;;;6.00;99.90;;;;;;5026766;28;20204;-85
2021/03/10 04:33:35;;;;;;;40.63;23.48;;;6.20;99.90;;;;;;5019865;28;20246;-85
2021/03/10 04:36:01;;;;;;;41.75;24.05;;;6.30;99.90;;;;;;5022472;28;20235;-84
2021/03/10 04:38:29;;;;;;;38.65;23.05;;;6.30;99.90;;;;;;5025374;28;20267;-86
2021/03/10 04:40:55;;;;;;;41.05;24.55;;;6.20;99.90;;;;;;5027254;28;20200;-86
2021/03/10 04:43:22;;;;;;;41.35;24.40;;;6.30;99.90;;;;;;5027031;28;20220;-86
2021/03/10 04:45:49;;;;;;;38.83;23.20;;;6.10;99.90;;;;;;5031262;28;20579;-86
2021/03/10 04:48:15;;;;;;;36.67;22.08;;;6.10;99.90;;;;;;5027222;28;20208;-86
2021/03/10 04:50:42;;;;;;;39.08;23.55;;;6.10;99.90;;;;;;5032477;28;20204;-86
2021/03/10 04:53:08;;;;;;;40.22;23.15;;;6.20;99.90;;;;;;5032166;28;20242;-85
2021/03/10 04:55:35;;;;;;;42.28;23.35;;;5.90;99.90;;;;;;5022304;28;20255;-85
2021/03/10 04:58:01;;;;;;;41.22;23.45;;;6.10;99.90;;;;;;5027117;28;20196;-85
2021/03/10 05:00:28;;;;;;;38.47;23.00;;;6.10;99.90;;;;;;5020241;28;20210;-85
2021/03/10 05:02:55;;;;;;;40.80;25.52;;;6.10;99.90;;;;;;5019744;28;20250;-84
2021/03/10 05:05:21;;;;;;;38.97;22.42;;;6.10;99.90;;;;;;5018777;28;20207;-84
2021/03/10 05:07:48;;;;;;;38.17;23.08;;;6.30;99.90;;;;;;5018781;28;20307;-84
2021/03/10 05:10:15;;;;;;;36.25;22.52;;;6.20;99.90;;;;;;5018512;28;20623;-84
2021/03/10 05:12:41;;;;;;;39.78;22.50;;;6.10;99.90;;;;;;5018766;28;20695;-84
2021/03/10 05:15:08;;;;;;;38.70;22.73;;;6.00;99.90;;;;;;5018013;28;20238;-84
2021/03/10 05:17:37;;;;;;;45.38;24.55;;;6.10;99.90;;;;;;5018317;28;20222;-85
2021/03/10 05:20:06;;;;;;;40.08;24.58;;;6.00;99.90;;;;;;5018867;28;20218;-83
2021/03/10 05:22:32;;;;;;;41.70;25.15;;;6.00;99.90;;;;;;5017901;28;20310;-84
2021/03/10 05:24:58;;;;;;;38.25;24.48;;;6.00;99.90;;;;;;5034715;28;20212;-84
2021/03/10 05:27:25;;;;;;;40.97;24.25;;;6.00;99.90;;;;;;5026402;28;20732;-84
2021/03/10 05:29:51;;;;;;;42.65;24.90;;;6.00;99.90;;;;;;5017919;28;20591;-85
2021/03/10 05:32:18;;;;;;;41.95;24.23;;;6.20;99.90;;;;;;5018755;28;20226;-85
2021/03/10 05:34:45;;;;;;;41.42;24.60;;;6.10;99.90;;;;;;5017091;28;20269;-84
2021/03/10 05:37:11;;;;;;;46.97;24.98;;;6.30;99.90;;;;;;5017340;28;20577;-86
2021/03/10 05:39:38;;;;;;;41.70;25.08;;;6.40;99.90;;;;;;5017503;28;20211;-85
2021/03/10 05:42:05;;;;;;;40.55;23.80;;;6.20;99.90;;;;;;5016799;28;20242;-85
2021/03/10 05:44:31;;;;;;;42.10;23.23;;;6.10;99.90;;;;;;5017102;28;20279;-85
2021/03/10 05:46:58;;;;;;;44.22;24.92;;;6.30;99.90;;;;;;5017017;28;20242;-85
2021/03/10 05:49:24;;;;;;;41.22;24.50;;;6.20;99.90;;;;;;5016290;28;20227;-84
2021/03/10 05:51:51;;;;;;;43.15;23.33;;;6.20;99.90;;;;;;5022680;28;20279;-86
2021/03/10 05:54:21;;;;;;;46.85;24.33;;;6.20;99.90;;;;;;5016134;28;20267;-85
2021/03/10 05:56:48;;;;;;;38.85;23.10;;;6.10;99.90;;;;;;5020621;28;20211;-85
2021/03/10 05:59:15;;;;;;;37.35;23.55;;;6.10;99.90;;;;;;5019714;28;20278;-85
2021/03/10 06:01:41;;;;;;;40.60;25.23;;;6.20;99.90;;;;;;5011985;28;20226;-86
2021/03/10 06:04:08;;;;;;;49.45;25.83;;;6.30;99.90;;;;;;5011363;28;20290;-86
2021/03/10 06:06:37;;;;;;;41.47;22.80;;;6.00;99.90;;;;;;5018008;28;20210;-85
2021/03/10 06:09:15;;;;;;;45.95;26.88;;;6.20;99.90;;;;;;5019234;28;20347;-85
2021/03/10 06:11:54;;;;;;;37.40;24.35;;;6.00;99.90;;;;;;5019147;28;20220;-85
2021/03/10 06:14:21;;;;;;;43.53;23.95;;;6.20;99.90;;;;;;5019067;28;20326;-85
2021/03/10 06:16:47;;;;;;;43.28;24.80;;;6.30;99.90;;;;;;5019148;28;20211;-85
2021/03/10 06:19:14;;;;;;;39.95;24.17;;;6.20;99.90;;;;;;5005865;28;20204;-85
2021/03/10 06:21:49;;;;;;;41.60;23.77;;;6.10;99.90;;;;;;5018268;28;20224;-86
2021/03/10 06:24:16;;;;;;;40.72;24.13;;;6.30;99.90;;;;;;5019291;28;20326;-85
2021/03/10 06:26:53;;;;;;;45.47;26.70;;;6.30;99.90;;;;;;5025306;28;20232;-85
2021/03/10 06:29:19;;;;;;;48.50;26.42;;;6.30;99.90;;;;;;5026344;28;20478;-85
2021/03/10 06:31:46;;;;;;;36.95;23.50;;;6.40;99.90;;;;;;5017194;28;20561;-85
2021/03/10 06:34:14;;;;;;;41.05;23.17;;;6.20;99.90;;;;;;5017254;28;20235;-84
2021/03/10 06:36:42;;;;;;;39.65;24.92;;;6.40;99.90;;;;;;5016736;28;20258;-84
2021/03/10 06:39:10;;;;;;;38.28;23.85;;;6.20;99.90;;;;;;5014339;28;20204;-84
2021/03/10 06:41:38;;;;;;;44.55;23.65;;;6.40;99.90;;;;;;5012250;28;20502;-85
2021/03/10 06:44:15;;;;;;;41.78;24.92;;;6.40;99.90;;;;;;5020268;28;20196;-84
2021/03/10 06:46:50;;;;;;;36.83;23.45;;;6.30;99.90;;;;;;5022734;28;20202;-85
2021/03/10 06:49:16;;;;;;;41.20;25.45;;;6.50;99.90;;;;;;5022274;28;20211;-86
2021/03/10 06:51:51;;;;;;;38.28;22.55;;;6.50;99.90;;;;;;5015549;28;20730;-85
2021/03/10 06:54:18;;;;;;;38.20;22.65;;;6.60;99.90;;;;;;5018068;28;20254;-85
2021/03/10 06:56:45;;;;;;;35.63;22.55;;;6.50;99.90;;;;;;5018980;28;20216;-85
2021/03/10 06:59:12;;;;;;;39.30;24.83;;;6.70;99.90;;;;;;5019230;28;20212;-85
2021/03/10 07:01:40;;;;;;;44.10;24.85;;;6.40;99.90;;;;;;5025009;28;20359;-85
2021/03/10 07:04:07;;;;;;;39.88;24.63;;;6.50;99.90;;;;;;5022784;28;20290;-84
2021/03/10 07:06:35;;;;;;;39.90;25.38;;;6.50;99.90;;;;;;5018201;28;20220;-84
2021/03/10 07:09:04;;;;;;;43.92;24.77;;;6.60;99.90;;;;;;5017652;28;20447;-84
2021/03/10 07:11:31;;;;;;;47.50;26.05;;;6.50;99.90;;;;;;5017932;28;20345;-84
2021/03/10 07:13:59;;;;;;;39.47;21.67;;;6.80;99.90;;;;;;5017624;28;20216;-84
2021/03/10 07:16:30;;;;;;;38.08;23.33;;;6.50;99.90;;;;;;5018196;28;20623;-85
2021/03/10 07:18:56;;;;;;;39.53;23.83;;;6.60;99.90;;;;;;5016920;28;20241;-84
2021/03/10 07:21:28;;;;;;;42.88;24.60;;;6.80;99.90;;;;;;5017535;28;20540;-87
2021/03/10 07:23:58;;;;;;;41.58;23.88;;;6.90;99.90;;;;;;5017558;28;20196;-85
2021/03/10 07:26:25;;;;;;;38.97;23.60;;;6.90;99.90;;;;;;5025097;28;20279;-86
2021/03/10 07:28:55;;;;;;;38.60;22.25;;;7.10;99.90;;;;;;5017477;28;20679;-84
2021/03/10 07:31:24;;;;;;;37.05;25.13;;;6.90;99.90;;;;;;5001963;28;20228;-85
2021/03/10 07:33:52;;;;;;;35.80;21.38;;;7.20;99.90;;;;;;5002620;28;20232;-84
2021/03/10 07:36:19;;;;;;;39.53;23.23;;;7.30;99.90;;;;;;5007011;28;20287;-85
2021/03/10 07:38:45;;;;;;;38.83;24.25;;;7.20;99.90;;;;;;5023036;28;20238;-85
2021/03/10 07:41:13;;;;;;;41.58;25.00;;;7.20;99.90;;;;;;5019361;28;20231;-86
2021/03/10 07:43:42;;;;;;;38.05;23.75;;;7.20;99.90;;;;;;5019056;28;20236;-84
2021/03/10 07:46:24;;;;;;;41.03;23.40;;;7.40;99.90;;;;;;5041752;28;20219;-85
2021/03/10 07:48:51;;;;;;;42.55;25.40;;;7.30;99.90;;;;;;5032323;28;20208;-86
2021/03/10 07:51:29;;;;;;;34.42;23.70;;;7.40;99.90;;;;;;5026868;28;20200;-83
2021/03/10 07:53:56;;;;;;;34.60;23.05;;;7.30;99.90;;;;;;5024413;28;20203;-84
2021/03/10 07:56:26;;;;;;;40.53;24.25;;;7.50;99.90;;;;;;5018736;28;20294;-84
2021/03/10 07:58:53;;;;;;;39.60;24.50;;;7.40;99.90;;;;;;5020065;28;20203;-84
2021/03/10 08:01:19;;;;;;;45.00;24.42;;;7.30;99.90;;;;;;5022188;28;21158;-85
2021/03/10 08:03:47;;;;;;;44.75;24.98;;;7.40;99.90;;;;;;5027250;28;20210;-84
2021/03/10 08:06:14;;;;;;;37.60;25.13;;;7.40;99.90;;;;;;5029077;28;20204;-84
2021/03/10 08:08:42;;;;;;;38.13;24.43;;;7.50;99.90;;;;;;5018961;28;20445;-85
2021/03/10 08:11:12;;;;;;;39.57;24.40;;;7.70;99.90;;;;;;5032024;28;20439;-84
2021/03/10 08:13:39;;;;;;;43.60;24.80;;;7.80;99.90;;;;;;5030786;28;20481;-86
2021/03/10 08:16:07;;;;;;;35.50;22.27;;;7.90;99.90;;;;;;5021757;28;20981;-84
2021/03/10 08:18:34;;;;;;;37.57;22.47;;;7.90;99.90;;;;;;5026758;28;20437;-84
2021/03/10 08:21:09;;;;;;;40.03;25.10;;;8.00;99.90;;;;;;5043265;28;20457;-84
2021/03/10 08:23:36;;;;;;;41.73;25.97;;;8.10;99.90;;;;;;5037507;28;20273;-86
2021/03/10 08:26:04;;;;;;;34.15;22.98;;;8.20;99.90;;;;;;5028067;28;20470;-85
2021/03/10 08:28:35;;;;;;;34.50;21.90;;;8.10;99.90;;;;;;5027897;28;20519;-85
2021/03/10 08:31:04;;;;;;;39.50;23.55;;;8.20;99.90;;;;;;5030912;28;20461;-86
2021/03/10 08:33:31;;;;;;;34.87;22.27;;;8.30;99.90;;;;;;5017982;28;20305;-86
2021/03/10 08:35:57;;;;;;;32.07;21.70;;;8.20;99.90;;;;;;5021805;28;20547;-86
2021/03/10 08:38:31;;;;;;;36.20;23.88;;;8.50;99.90;;;;;;5024007;28;20433;-85
2021/03/10 08:41:03;;;;;;;34.13;21.90;;;8.50;99.90;;;;;;5016232;28;20709;-86
2021/03/10 08:43:30;;;;;;;34.60;22.03;;;8.60;99.90;;;;;;5015757;28;20476;-86
2021/03/10 08:45:57;;;;;;;36.33;21.80;;;8.70;99.90;;;;;;5020213;23;20502;-82
2021/03/10 08:48:24;;;;;;;33.43;22.07;;;8.70;99.90;;;;;;4998832;28;20471;-81
2021/03/10 08:50:51;;;;;;;36.60;23.73;;;8.80;99.90;;;;;;4996227;28;20448;-81
2021/03/10 08:53:17;;;;;;;35.57;22.90;;;8.70;99.90;;;;;;4995365;28;21004;-81
2021/03/10 08:55:46;;;;;;;45.10;23.10;;;8.60;99.90;;;;;;4997060;28;20496;-82
2021/03/10 08:58:14;;;;;;;33.80;21.23;;;8.70;99.90;;;;;;4996224;28;20499;-82
2021/03/10 09:00:42;;;;;;;38.50;22.60;;;9.10;99.90;;;;;;4996898;28;20452;-82
2021/03/10 09:03:10;;;;;;;36.77;24.27;;;9.10;99.90;;;;;;5013032;28;20985;-81
2021/03/10 09:05:37;;;;;;;36.93;22.53;;;9.00;99.90;;;;;;5018441;28;20531;-82
2021/03/10 09:08:06;;;;;;;36.50;22.83;;;9.30;99.90;;;;;;5006238;28;20446;-81
2021/03/10 09:10:33;;;;;;;35.53;21.13;;;9.00;99.90;;;;;;5002929;28;20527;-83
2021/03/10 09:13:01;;;;;;;37.10;22.30;;;9.20;99.90;;;;;;5015391;28;20458;-82
2021/03/10 09:15:30;;;;;;;31.73;22.10;;;9.40;99.90;;;;;;5006419;28;20578;-83
2021/03/10 09:18:01;;;;;;;30.77;21.97;;;9.30;99.90;;;;;;5004762;28;20443;-82
2021/03/10 09:20:29;;;;;;;30.60;20.80;;;9.50;99.90;;;;;;5000379;28;20483;-81
2021/03/10 09:22:56;;;;;;;36.03;21.80;;;9.70;99.90;;;;;;4996092;28;21034;-81
2021/03/10 09:25:24;;;;;;;36.03;20.87;;;9.70;99.90;;;;;;4996240;28;20982;-82
2021/03/10 09:28:02;;;;;;;36.10;21.57;;;9.70;99.90;;;;;;4999368;28;20425;-81
2021/03/10 09:30:30;;;;;;;32.43;19.37;;;9.70;99.90;;;;;;4997629;28;20472;-79
2021/03/10 09:32:58;;;;;;;29.50;19.60;;;9.80;99.90;;;;;;4997711;28;20431;-85
2021/03/10 09:35:29;;;;;;;31.20;18.77;;;9.70;99.90;;;;;;5000052;28;20616;-78
2021/03/10 09:37:58;;;;;;;38.67;22.20;;;9.90;99.90;;;;;;4995657;28;20566;-79
2021/03/10 09:40:34;;;;;;;29.90;20.27;;;9.80;99.90;;;;;;4993758;28;20533;-79
2021/03/10 09:43:03;;;;;;;32.30;21.03;;;9.80;99.90;;;;;;4995488;28;20513;-81
2021/03/10 09:45:31;;;;;;;26.27;17.80;;;9.90;99.90;;;;;;4995286;28;20458;-81
2021/03/10 09:47:57;;;;;;;27.33;18.37;;;10.10;99.90;;;;;;4994451;28;20966;-81
2021/03/10 09:50:29;;;;;;;25.67;16.93;;;10.10;99.90;;;;;;4994302;28;20463;-81
2021/03/10 09:52:56;;;;;;;27.13;18.03;;;10.00;99.90;;;;;;4998040;28;21184;-77
2021/03/10 09:55:24;;;;;;;27.80;16.87;;;10.00;99.90;;;;;;4991648;28;20575;-76
2021/03/10 09:58:02;;;;;;;25.60;16.10;;;10.00;99.90;;;;;;5000659;28;20458;-82
2021/03/10 10:00:28;;;;;;;30.10;16.57;;;10.10;99.50;;;;;;5008214;28;20505;-81
2021/03/10 10:02:55;;;;;;;23.20;15.50;;;10.00;99.20;;;;;;5011762;28;20448;-81
2021/03/10 10:05:23;;;;;;;33.20;16.77;;;10.00;98.50;;;;;;5006075;28;20891;-82
2021/03/10 10:07:50;;;;;;;24.70;16.70;;;9.80;99.00;;;;;;5006219;28;20455;-79
2021/03/10 10:10:17;;;;;;;25.83;15.20;;;9.70;99.80;;;;;;4996376;28;20605;-81
2021/03/10 10:12:44;;;;;;;23.20;14.13;;;9.70;99.30;;;;;;4993122;28;20451;-85
2021/03/10 10:15:14;;;;;;;21.63;13.53;;;9.80;98.80;;;;;;4998267;28;20491;-81
2021/03/10 10:17:42;;;;;;;22.23;13.23;;;9.70;98.60;;;;;;4989960;28;20521;-81
2021/03/10 10:20:10;;;;;;;24.30;16.10;;;9.20;98.90;;;;;;4992208;28;20527;-81
2021/03/10 10:22:37;;;;;;;28.47;16.97;;;9.90;99.30;;;;;;4993728;28;20535;-78
2021/03/10 10:25:05;;;;;;;25.83;15.13;;;9.90;99.10;;;;;;4992979;28;20567;-81
2021/03/10 10:27:31;;;;;;;22.63;14.77;;;9.70;98.80;;;;;;4996730;28;20476;-81
2021/03/10 10:29:58;;;;;;;23.23;14.37;;;9.50;98.80;;;;;;4992848;28;20518;-80
2021/03/10 10:32:25;;;;;;;22.07;13.43;;;9.80;98.70;;;;;;4992948;28;20467;-80
2021/03/10 10:34:52;;;;;;;20.83;12.57;;;10.00;97.10;;;;;;4991916;28;20491;-80
2021/03/10 10:37:18;;;;;;;18.57;11.57;;;10.00;97.00;;;;;;4993050;28;20518;-80
2021/03/10 10:39:45;;;;;;;19.80;11.10;;;10.00;96.30;;;;;;4993009;28;20456;-80
2021/03/10 10:42:11;;;;;;;23.00;12.03;;;10.10;95.90;;;;;;4992142;28;20437;-79
2021/03/10 10:44:38;;;;;;;19.97;11.30;;;10.20;95.70;;;;;;4991352;28;20850;-79
2021/03/10 10:47:04;;;;;;;16.30;10.13;;;10.20;95.10;;;;;;4999205;28;20438;-79
2021/03/10 10:49:31;;;;;;;17.83;11.20;;;10.30;94.90;;;;;;4980466;28;20543;-80
2021/03/10 10:51:58;;;;;;;16.40;8.50;;;10.50;94.30;;;;;;4980929;28;20456;-79
2021/03/10 10:54:24;;;;;;;10.90;6.63;;;10.50;92.60;;;;;;4992597;28;20458;-79
2021/03/10 10:56:51;;;;;;;6.93;4.27;;;10.30;90.90;;;;;;4994263;28;20437;-81
2021/03/10 10:59:18;;;;;;;8.00;4.47;;;10.20;90.30;;;;;;4995139;28;20455;-80
2021/03/10 11:01:45;;;;;;;12.00;5.83;;;10.20;90.50;;;;;;4991780;28;20455;-79
2021/03/10 11:04:11;;;;;;;10.83;5.17;;;10.20;90.40;;;;;;4989995;28;20481;-80
2021/03/10 11:06:39;;;;;;;13.20;6.83;;;10.20;90.40;;;;;;4993703;28;20468;-79
2021/03/10 11:09:06;;;;;;;11.27;5.53;;;10.40;89.70;;;;;;4991212;28;20456;-75
2021/03/10 11:11:32;;;;;;;7.93;4.93;;;10.50;87.30;;;;;;4990477;28;20418;-76
2021/03/10 11:13:59;;;;;;;6.63;4.20;;;10.50;86.20;;;;;;4990837;28;20455;-77
2021/03/10 11:16:25;;;;;;;9.70;4.87;;;10.50;86.20;;;;;;4990292;28;20598;-76
2021/03/10 11:18:52;;;;;;;7.20;4.17;;;10.30;86.20;;;;;;4991881;28;20525;-79
2021/03/10 11:21:18;;;;;;;8.47;4.20;;;10.60;86.30;;;;;;4991157;28;20482;-77
2021/03/10 11:23:45;;;;;;;8.83;4.47;;;10.50;85.20;;;;;;4992925;28;20434;-78
2021/03/10 11:26:12;;;;;;;7.77;4.23;;;10.60;85.50;;;;;;4995031;28;20457;-79
2021/03/10 11:28:38;;;;;;;7.63;5.10;;;10.60;84.00;;;;;;4997354;28;20450;-79
2021/03/10 11:31:05;;;;;;;7.70;4.50;;;10.70;84.00;;;;;;5003228;28;20459;-79
2021/03/10 11:33:32;;;;;;;9.30;4.13;;;10.70;82.80;;;;;;5000052;28;20434;-80
2021/03/10 11:35:58;;;;;;;8.67;5.10;;;10.40;84.00;;;;;;4996270;28;21015;-81
2021/03/10 11:38:25;;;;;;;6.37;4.07;;;10.40;84.80;;;;;;4994870;28;20539;-81
2021/03/10 11:40:52;;;;;;;9.57;6.30;;;10.50;83.90;;;;;;5000109;28;20483;-82
2021/03/10 11:43:18;;;;;;;8.97;3.77;;;10.60;83.20;;;;;;4981642;28;20427;-82
2021/03/10 11:45:45;;;;;;;7.63;3.90;;;10.40;81.50;;;;;;4991763;28;20543;-82
2021/03/10 11:48:11;;;;;;;7.67;4.67;;;10.50;83.00;;;;;;5002042;28;20466;-81
2021/03/10 11:50:39;;;;;;;10.80;4.53;;;10.60;82.30;;;;;;5002019;28;20495;-82
2021/03/10 11:53:06;;;;;;;7.83;4.47;;;10.70;82.50;;;;;;5003869;28;20454;-78
2021/03/10 11:55:33;;;;;;;9.10;5.47;;;10.90;81.30;;;;;;5002202;28;20490;-78
2021/03/10 11:58:00;;;;;;;8.67;5.50;;;10.80;80.80;;;;;;4990412;28;20460;-76
2021/03/10 12:00:27;;;;;;;6.93;4.10;;;10.90;81.00;;;;;;4991208;28;20471;-74
2021/03/10 12:02:54;;;;;;;7.70;4.70;;;10.90;81.00;;;;;;4990918;28;20529;-79
2021/03/10 12:05:20;;;;;;;8.93;5.23;;;10.90;81.10;;;;;;5001291;28;20482;-81
2021/03/10 12:07:47;;;;;;;8.93;6.10;;;10.80;81.90;;;;;;5000981;28;20536;-75
2021/03/10 12:10:14;;;;;;;9.40;5.73;;;10.80;82.20;;;;;;4989986;28;20885;-76
2021/03/10 12:12:40;;;;;;;12.20;4.77;;;10.70;82.40;;;;;;4989519;28;20456;-76
2021/03/10 12:15:09;;;;;;;7.90;4.93;;;10.60;83.00;;;;;;4989149;28;20572;-77
2021/03/10 12:17:36;;;;;;;8.53;5.30;;;10.60;82.40;;;;;;4988901;28;20459;-76
2021/03/10 12:20:03;;;;;;;8.37;5.23;;;10.70;80.80;;;;;;4989011;28;20582;-76
2021/03/10 12:22:30;;;;;;;9.30;6.00;;;10.90;80.30;;;;;;4989193;28;20495;-76
2021/03/10 12:24:56;;;;;;;10.43;6.07;;;11.00;80.80;;;;;;4989125;28;20526;-75
2021/03/10 12:27:25;;;;;;;8.33;5.43;;;10.90;80.30;;;;;;4988989;28;20430;-75
2021/03/10 12:29:53;;;;;;;9.90;5.57;;;10.80;80.60;;;;;;4989130;28;20815;-76
2021/03/10 12:32:21;;;;;;;7.43;4.80;;;10.90;80.20;;;;;;4993904;28;20439;-80
2021/03/10 12:34:49;;;;;;;10.03;4.93;;;10.80;79.00;;;;;;4997285;28;20537;-80
2021/03/10 12:37:16;;;;;;;7.77;5.23;;;11.00;78.80;;;;;;5002230;28;20460;-80
2021/03/10 12:39:42;;;;;;;8.33;5.20;;;10.90;78.30;;;;;;4997857;28;20554;-75
2021/03/10 12:42:09;;;;;;;8.23;5.40;;;11.00;78.20;;;;;;4993595;28;20457;-78